sensor_id;sensor_type;location;lat;lon;timestamp;P1;durP1;ratioP1;P2;durP2;ratioP2
19848;SDS011;10085;51.120;6.956;2023-04-01T00:04:42;17.08;;;5.68;;
19848;SDS011;10085;51.120;6.956;2023-04-01T00:09:46;13.13;;;4.85;;
19848;SDS011;10085;51.120;6.956;2023-04-01T00:14:49;12.00;;;5.07;;
19848;SDS011;10085;51.120;6.956;2023-04-01T00:19:51;12.50;;;5.30;;
19848;SDS011;10085;51.120;6.956;2023-04-01T00:24:57;12.95;;;4.93;;
19848;SDS011;10085;51.120;6.956;2023-04-01T00:35:28;13.00;;;4.85;;
19848;SDS011;10085;51.120;6.956;2023-04-01T00:40:33;10.77;;;4.43;;
19848;SDS011;10085;51.120;6.956;2023-04-01T00:45:38;10.85;;;4.20;;
19848;SDS011;10085;51.120;6.956;2023-04-01T00:50:43;11.85;;;4.40;;
19848;SDS011;10085;51.120;6.956;2023-04-01T00:55:50;11.15;;;4.20;;
19848;SDS011;10085;51.120;6.956;2023-04-01T01:00:56;12.52;;;3.97;;
19848;SDS011;10085;51.120;6.956;2023-04-01T01:06:08;11.15;;;4.53;;
19848;SDS011;10085;51.120;6.956;2023-04-01T01:11:14;12.27;;;4.28;;
19848;SDS011;10085;51.120;6.956;2023-04-01T01:16:24;12.57;;;4.22;;
19848;SDS011;10085;51.120;6.956;2023-04-01T01:21:42;10.95;;;4.13;;
19848;SDS011;10085;51.120;6.956;2023-04-01T01:26:57;9.02;;;3.63;;
19848;SDS011;10085;51.120;6.956;2023-04-01T01:32:06;9.27;;;4.22;;
19848;SDS011;10085;51.120;6.956;2023-04-01T01:37:19;9.50;;;3.72;;
19848;SDS011;10085;51.120;6.956;2023-04-01T01:42:23;7.15;;;3.28;;
19848;SDS011;10085;51.120;6.956;2023-04-01T01:47:28;8.70;;;3.42;;
19848;SDS011;10085;51.120;6.956;2023-04-01T01:52:33;8.20;;;3.42;;
19848;SDS011;10085;51.120;6.956;2023-04-01T01:57:36;8.32;;;3.30;;
19848;SDS011;10085;51.120;6.956;2023-04-01T02:02:50;8.15;;;3.20;;
19848;SDS011;10085;51.120;6.956;2023-04-01T02:07:57;9.40;;;3.40;;
19848;SDS011;10085;51.120;6.956;2023-04-01T02:13:05;7.35;;;3.10;;
19848;SDS011;10085;51.120;6.956;2023-04-01T02:18:12;7.18;;;3.13;;
19848;SDS011;10085;51.120;6.956;2023-04-01T02:23:17;7.68;;;3.10;;
19848;SDS011;10085;51.120;6.956;2023-04-01T02:28:20;6.30;;;2.90;;
19848;SDS011;10085;51.120;6.956;2023-04-01T02:33:23;7.45;;;2.90;;
19848;SDS011;10085;51.120;6.956;2023-04-01T02:38:27;5.68;;;2.60;;
19848;SDS011;10085;51.120;6.956;2023-04-01T02:43:30;6.60;;;2.85;;
19848;SDS011;10085;51.120;6.956;2023-04-01T02:48:33;5.20;;;2.55;;
19848;SDS011;10085;51.120;6.956;2023-04-01T02:53:37;6.72;;;2.88;;
19848;SDS011;10085;51.120;6.956;2023-04-01T02:58:40;6.13;;;2.65;;
19848;SDS011;10085;51.120;6.956;2023-04-01T03:03:42;5.90;;;2.53;;
19848;SDS011;10085;51.120;6.956;2023-04-01T03:08:47;5.28;;;2.38;;
19848;SDS011;10085;51.120;6.956;2023-04-01T03:13:50;5.70;;;2.70;;
19848;SDS011;10085;51.120;6.956;2023-04-01T03:18:53;4.13;;;2.40;;
19848;SDS011;10085;51.120;6.956;2023-04-01T03:24:09;6.05;;;2.38;;
19848;SDS011;10085;51.120;6.956;2023-04-01T03:29:12;4.88;;;2.22;;
19848;SDS011;10085;51.120;6.956;2023-04-01T03:34:17;3.88;;;2.00;;
19848;SDS011;10085;51.120;6.956;2023-04-01T03:39:22;4.88;;;2.30;;
19848;SDS011;10085;51.120;6.956;2023-04-01T03:44:24;5.75;;;2.45;;
19848;SDS011;10085;51.120;6.956;2023-04-01T03:49:29;5.18;;;2.25;;
19848;SDS011;10085;51.120;6.956;2023-04-01T03:54:35;4.00;;;2.30;;
19848;SDS011;10085;51.120;6.956;2023-04-01T03:59:38;5.88;;;2.30;;
19848;SDS011;10085;51.120;6.956;2023-04-01T04:04:41;4.10;;;2.05;;
19848;SDS011;10085;51.120;6.956;2023-04-01T04:09:45;5.00;;;2.33;;
19848;SDS011;10085;51.120;6.956;2023-04-01T04:14:49;4.72;;;2.10;;
19848;SDS011;10085;51.120;6.956;2023-04-01T04:19:51;3.53;;;1.63;;
19848;SDS011;10085;51.120;6.956;2023-04-01T04:24:56;3.88;;;1.85;;
19848;SDS011;10085;51.120;6.956;2023-04-01T04:29:59;5.15;;;2.00;;
19848;SDS011;10085;51.120;6.956;2023-04-01T04:35:03;4.68;;;2.05;;
19848;SDS011;10085;51.120;6.956;2023-04-01T04:40:10;4.93;;;1.80;;
19848;SDS011;10085;51.120;6.956;2023-04-01T04:45:13;3.40;;;1.73;;
19848;SDS011;10085;51.120;6.956;2023-04-01T04:50:25;4.93;;;1.73;;
19848;SDS011;10085;51.120;6.956;2023-04-01T04:55:29;4.55;;;1.85;;
19848;SDS011;10085;51.120;6.956;2023-04-01T05:00:51;3.28;;;1.70;;
19848;SDS011;10085;51.120;6.956;2023-04-01T05:05:59;3.65;;;1.60;;
19848;SDS011;10085;51.120;6.956;2023-04-01T05:11:06;2.33;;;1.40;;
19848;SDS011;10085;51.120;6.956;2023-04-01T05:16:15;3.28;;;1.83;;
19848;SDS011;10085;51.120;6.956;2023-04-01T05:21:19;3.03;;;1.75;;
19848;SDS011;10085;51.120;6.956;2023-04-01T05:26:24;2.83;;;1.50;;
19848;SDS011;10085;51.120;6.956;2023-04-01T05:31:26;3.90;;;1.42;;
19848;SDS011;10085;51.120;6.956;2023-04-01T05:36:31;2.40;;;1.40;;
19848;SDS011;10085;51.120;6.956;2023-04-01T05:41:35;2.75;;;1.60;;
19848;SDS011;10085;51.120;6.956;2023-04-01T05:46:38;3.50;;;1.40;;
19848;SDS011;10085;51.120;6.956;2023-04-01T05:51:48;2.33;;;1.30;;
19848;SDS011;10085;51.120;6.956;2023-04-01T05:56:53;2.10;;;1.20;;
19848;SDS011;10085;51.120;6.956;2023-04-01T06:01:57;2.47;;;1.33;;
19848;SDS011;10085;51.120;6.956;2023-04-01T06:07:00;2.25;;;1.30;;
19848;SDS011;10085;51.120;6.956;2023-04-01T06:17:43;2.83;;;1.38;;
19848;SDS011;10085;51.120;6.956;2023-04-01T06:23:09;2.45;;;1.10;;
19848;SDS011;10085;51.120;6.956;2023-04-01T06:28:38;2.03;;;1.10;;
19848;SDS011;10085;51.120;6.956;2023-04-01T06:33:49;2.58;;;1.13;;
19848;SDS011;10085;51.120;6.956;2023-04-01T06:39:05;1.67;;;1.10;;
19848;SDS011;10085;51.120;6.956;2023-04-01T06:44:18;1.55;;;1.13;;
19848;SDS011;10085;51.120;6.956;2023-04-01T06:49:48;2.60;;;1.27;;
19848;SDS011;10085;51.120;6.956;2023-04-01T06:55:17;2.67;;;1.25;;
19848;SDS011;10085;51.120;6.956;2023-04-01T07:00:53;1.10;;;0.90;;
19848;SDS011;10085;51.120;6.956;2023-04-01T07:05:57;1.63;;;1.15;;
19848;SDS011;10085;51.120;6.956;2023-04-01T07:11:02;1.60;;;1.20;;
19848;SDS011;10085;51.120;6.956;2023-04-01T07:16:26;2.25;;;1.27;;
19848;SDS011;10085;51.120;6.956;2023-04-01T07:21:33;1.38;;;1.10;;
19848;SDS011;10085;51.120;6.956;2023-04-01T07:26:47;1.92;;;1.30;;
19848;SDS011;10085;51.120;6.956;2023-04-01T07:37:21;2.35;;;1.40;;
19848;SDS011;10085;51.120;6.956;2023-04-01T07:42:29;1.45;;;1.10;;
19848;SDS011;10085;51.120;6.956;2023-04-01T07:47:45;1.85;;;1.20;;
19848;SDS011;10085;51.120;6.956;2023-04-01T07:53:01;2.42;;;1.55;;
19848;SDS011;10085;51.120;6.956;2023-04-01T07:58:12;1.80;;;1.13;;
19848;SDS011;10085;51.120;6.956;2023-04-01T08:03:33;2.15;;;1.40;;
19848;SDS011;10085;51.120;6.956;2023-04-01T08:08:44;2.10;;;1.23;;
19848;SDS011;10085;51.120;6.956;2023-04-01T08:14:08;1.40;;;1.20;;
19848;SDS011;10085;51.120;6.956;2023-04-01T08:19:20;1.80;;;1.15;;
19848;SDS011;10085;51.120;6.956;2023-04-01T08:24:43;2.70;;;1.20;;
19848;SDS011;10085;51.120;6.956;2023-04-01T08:29:57;1.77;;;1.35;;
19848;SDS011;10085;51.120;6.956;2023-04-01T08:35:06;4.30;;;1.20;;
19848;SDS011;10085;51.120;6.956;2023-04-01T08:40:22;1.98;;;1.40;;
19848;SDS011;10085;51.120;6.956;2023-04-01T08:45:41;1.80;;;1.20;;
19848;SDS011;10085;51.120;6.956;2023-04-01T08:50:58;2.40;;;1.52;;
19848;SDS011;10085;51.120;6.956;2023-04-01T08:57:15;1.70;;;1.23;;
19848;SDS011;10085;51.120;6.956;2023-04-01T09:02:56;3.17;;;1.30;;
19848;SDS011;10085;51.120;6.956;2023-04-01T09:08:30;2.30;;;1.30;;
19848;SDS011;10085;51.120;6.956;2023-04-01T09:14:00;3.47;;;1.35;;
19848;SDS011;10085;51.120;6.956;2023-04-01T09:19:33;3.35;;;1.45;;
19848;SDS011;10085;51.120;6.956;2023-04-01T09:25:03;2.35;;;1.30;;
19848;SDS011;10085;51.120;6.956;2023-04-01T09:30:36;2.20;;;1.10;;
19848;SDS011;10085;51.120;6.956;2023-04-01T09:35:46;3.63;;;1.45;;
19848;SDS011;10085;51.120;6.956;2023-04-01T09:40:55;4.10;;;1.35;;
19848;SDS011;10085;51.120;6.956;2023-04-01T09:46:20;3.17;;;1.40;;
19848;SDS011;10085;51.120;6.956;2023-04-01T09:51:30;8.65;;;1.50;;
19848;SDS011;10085;51.120;6.956;2023-04-01T10:08:29;2.03;;;1.30;;
19848;SDS011;10085;51.120;6.956;2023-04-01T10:30:50;6.03;;;1.75;;
19848;SDS011;10085;51.120;6.956;2023-04-01T10:42:24;3.90;;;1.67;;
19848;SDS011;10085;51.120;6.956;2023-04-01T10:54:11;2.50;;;1.50;;
19848;SDS011;10085;51.120;6.956;2023-04-01T11:12:04;4.70;;;1.40;;
19848;SDS011;10085;51.120;6.956;2023-04-01T11:17:42;2.85;;;1.38;;
19848;SDS011;10085;51.120;6.956;2023-04-01T11:23:05;3.08;;;1.40;;
19848;SDS011;10085;51.120;6.956;2023-04-01T11:28:25;2.50;;;1.30;;
19848;SDS011;10085;51.120;6.956;2023-04-01T11:33:38;2.85;;;1.50;;
19848;SDS011;10085;51.120;6.956;2023-04-01T11:38:50;2.13;;;1.40;;
19848;SDS011;10085;51.120;6.956;2023-04-01T11:44:20;3.42;;;1.60;;
19848;SDS011;10085;51.120;6.956;2023-04-01T11:49:43;3.60;;;1.95;;
19848;SDS011;10085;51.120;6.956;2023-04-01T12:00:38;3.08;;;1.70;;
19848;SDS011;10085;51.120;6.956;2023-04-01T12:05:53;3.63;;;2.03;;
19848;SDS011;10085;51.120;6.956;2023-04-01T12:10:59;3.40;;;2.00;;
19848;SDS011;10085;51.120;6.956;2023-04-01T12:16:08;4.50;;;2.22;;
19848;SDS011;10085;51.120;6.956;2023-04-01T12:21:22;3.38;;;2.22;;
19848;SDS011;10085;51.120;6.956;2023-04-01T12:26:31;5.85;;;2.30;;
19848;SDS011;10085;51.120;6.956;2023-04-01T12:31:47;4.90;;;2.17;;
19848;SDS011;10085;51.120;6.956;2023-04-01T12:36:57;3.30;;;2.30;;
19848;SDS011;10085;51.120;6.956;2023-04-01T12:42:07;4.30;;;2.67;;
19848;SDS011;10085;51.120;6.956;2023-04-01T12:47:25;5.30;;;3.30;;
19848;SDS011;10085;51.120;6.956;2023-04-01T12:52:44;8.65;;;3.58;;
19848;SDS011;10085;51.120;6.956;2023-04-01T12:58:00;6.20;;;3.40;;
19848;SDS011;10085;51.120;6.956;2023-04-01T13:03:19;6.70;;;3.92;;
19848;SDS011;10085;51.120;6.956;2023-04-01T13:08:33;8.18;;;4.25;;
19848;SDS011;10085;51.120;6.956;2023-04-01T13:13:48;7.18;;;4.38;;
19848;SDS011;10085;51.120;6.956;2023-04-01T13:19:18;6.97;;;4.25;;
19848;SDS011;10085;51.120;6.956;2023-04-01T13:24:28;5.90;;;4.03;;
19848;SDS011;10085;51.120;6.956;2023-04-01T13:29:34;7.72;;;4.13;;
19848;SDS011;10085;51.120;6.956;2023-04-01T13:34:42;6.32;;;4.18;;
19848;SDS011;10085;51.120;6.956;2023-04-01T13:40:00;5.78;;;3.88;;
19848;SDS011;10085;51.120;6.956;2023-04-01T13:45:10;6.15;;;4.20;;
19848;SDS011;10085;51.120;6.956;2023-04-01T13:55:49;6.65;;;3.55;;
19848;SDS011;10085;51.120;6.956;2023-04-01T14:01:00;7.40;;;4.22;;
19848;SDS011;10085;51.120;6.956;2023-04-01T14:06:14;6.50;;;3.38;;
19848;SDS011;10085;51.120;6.956;2023-04-01T14:11:22;5.93;;;3.47;;
19848;SDS011;10085;51.120;6.956;2023-04-01T14:16:47;5.85;;;3.45;;
19848;SDS011;10085;51.120;6.956;2023-04-01T14:33:20;5.38;;;3.30;;
19848;SDS011;10085;51.120;6.956;2023-04-01T14:38:29;4.82;;;3.17;;
19848;SDS011;10085;51.120;6.956;2023-04-01T14:43:54;5.57;;;3.28;;
19848;SDS011;10085;51.120;6.956;2023-04-01T14:49:13;5.90;;;3.08;;
19848;SDS011;10085;51.120;6.956;2023-04-01T14:54:18;5.88;;;2.85;;
19848;SDS011;10085;51.120;6.956;2023-04-01T14:59:27;6.20;;;3.50;;
19848;SDS011;10085;51.120;6.956;2023-04-01T15:04:43;6.38;;;3.30;;
19848;SDS011;10085;51.120;6.956;2023-04-01T15:09:51;4.53;;;3.30;;
19848;SDS011;10085;51.120;6.956;2023-04-01T15:15:00;4.22;;;3.10;;
19848;SDS011;10085;51.120;6.956;2023-04-01T15:20:25;4.45;;;3.15;;
19848;SDS011;10085;51.120;6.956;2023-04-01T15:25:39;4.80;;;3.08;;
19848;SDS011;10085;51.120;6.956;2023-04-01T15:30:51;3.70;;;2.90;;
19848;SDS011;10085;51.120;6.956;2023-04-01T15:35:59;4.10;;;2.72;;
19848;SDS011;10085;51.120;6.956;2023-04-01T15:41:09;5.05;;;3.00;;
19848;SDS011;10085;51.120;6.956;2023-04-01T15:46:30;10.63;;;3.70;;
19848;SDS011;10085;51.120;6.956;2023-04-01T15:51:48;9.05;;;3.47;;
19848;SDS011;10085;51.120;6.956;2023-04-01T15:57:04;9.10;;;3.60;;
19848;SDS011;10085;51.120;6.956;2023-04-01T16:02:13;12.93;;;3.45;;
19848;SDS011;10085;51.120;6.956;2023-04-01T16:07:26;12.45;;;3.40;;
19848;SDS011;10085;51.120;6.956;2023-04-01T16:13:02;14.25;;;4.00;;
19848;SDS011;10085;51.120;6.956;2023-04-01T16:18:17;11.23;;;4.05;;
19848;SDS011;10085;51.120;6.956;2023-04-01T16:23:33;15.18;;;3.80;;
19848;SDS011;10085;51.120;6.956;2023-04-01T16:28:40;12.40;;;3.65;;
19848;SDS011;10085;51.120;6.956;2023-04-01T16:33:47;9.45;;;3.88;;
19848;SDS011;10085;51.120;6.956;2023-04-01T16:38:59;11.35;;;3.90;;
19848;SDS011;10085;51.120;6.956;2023-04-01T16:44:13;12.23;;;4.13;;
19848;SDS011;10085;51.120;6.956;2023-04-01T16:54:45;9.07;;;3.75;;
19848;SDS011;10085;51.120;6.956;2023-04-01T16:59:54;9.30;;;3.58;;
19848;SDS011;10085;51.120;6.956;2023-04-01T17:05:00;10.05;;;3.50;;
19848;SDS011;10085;51.120;6.956;2023-04-01T17:10:11;7.90;;;3.63;;
19848;SDS011;10085;51.120;6.956;2023-04-01T17:15:30;11.30;;;4.18;;
19848;SDS011;10085;51.120;6.956;2023-04-01T17:20:40;10.18;;;3.60;;
19848;SDS011;10085;51.120;6.956;2023-04-01T17:25:48;9.00;;;3.30;;
19848;SDS011;10085;51.120;6.956;2023-04-01T17:30:58;9.07;;;3.90;;
19848;SDS011;10085;51.120;6.956;2023-04-01T17:36:06;8.55;;;3.70;;
19848;SDS011;10085;51.120;6.956;2023-04-01T17:41:17;7.93;;;3.55;;
19848;SDS011;10085;51.120;6.956;2023-04-01T17:46:32;12.82;;;4.05;;
19848;SDS011;10085;51.120;6.956;2023-04-01T18:30:31;19.00;;;17.05;;
19848;SDS011;10085;51.120;6.956;2023-04-01T18:35:45;20.35;;;18.25;;
19848;SDS011;10085;51.120;6.956;2023-04-01T18:40:50;19.20;;;17.00;;
19848;SDS011;10085;51.120;6.956;2023-04-01T18:45:58;20.90;;;18.80;;
19848;SDS011;10085;51.120;6.956;2023-04-01T18:51:08;21.00;;;19.00;;
19848;SDS011;10085;51.120;6.956;2023-04-01T18:56:14;19.92;;;18.13;;
19848;SDS011;10085;51.120;6.956;2023-04-01T19:01:22;20.52;;;18.42;;
19848;SDS011;10085;51.120;6.956;2023-04-01T19:06:28;20.65;;;14.95;;
19848;SDS011;10085;51.120;6.956;2023-04-01T19:55:52;12.98;;;10.73;;
19848;SDS011;10085;51.120;6.956;2023-04-01T20:40:32;9.77;;;8.50;;
19848;SDS011;10085;51.120;6.956;2023-04-01T20:45:38;17.02;;;8.80;;
19848;SDS011;10085;51.120;6.956;2023-04-01T20:50:47;14.90;;;8.45;;
19848;SDS011;10085;51.120;6.956;2023-04-01T21:34:37;9.02;;;8.13;;
19848;SDS011;10085;51.120;6.956;2023-04-01T21:45:49;9.00;;;8.10;;
19848;SDS011;10085;51.120;6.956;2023-04-01T21:51:16;8.10;;;7.28;;
19848;SDS011;10085;51.120;6.956;2023-04-01T21:56:30;8.02;;;7.22;;
19848;SDS011;10085;51.120;6.956;2023-04-01T22:02:09;8.52;;;7.40;;
19848;SDS011;10085;51.120;6.956;2023-04-01T22:07:35;7.85;;;7.15;;
19848;SDS011;10085;51.120;6.956;2023-04-01T22:12:42;7.43;;;6.70;;
19848;SDS011;10085;51.120;6.956;2023-04-01T22:17:48;7.50;;;6.70;;
19848;SDS011;10085;51.120;6.956;2023-04-01T22:23:01;7.78;;;6.97;;
19848;SDS011;10085;51.120;6.956;2023-04-01T22:28:16;7.32;;;6.50;;
19848;SDS011;10085;51.120;6.956;2023-04-01T22:33:24;10.50;;;6.82;;
19848;SDS011;10085;51.120;6.956;2023-04-01T22:38:38;7.15;;;6.43;;
19848;SDS011;10085;51.120;6.956;2023-04-01T22:43:54;8.48;;;6.57;;
19848;SDS011;10085;51.120;6.956;2023-04-01T22:48:59;7.10;;;6.40;;
19848;SDS011;10085;51.120;6.956;2023-04-01T22:54:08;7.47;;;6.53;;
19848;SDS011;10085;51.120;6.956;2023-04-01T22:59:17;5.65;;;4.97;;
19848;SDS011;10085;51.120;6.956;2023-04-01T23:04:24;7.32;;;5.95;;
19848;SDS011;10085;51.120;6.956;2023-04-01T23:09:30;8.35;;;5.70;;
19848;SDS011;10085;51.120;6.956;2023-04-01T23:14:39;6.20;;;5.60;;
19848;SDS011;10085;51.120;6.956;2023-04-01T23:19:49;10.15;;;5.40;;
19848;SDS011;10085;51.120;6.956;2023-04-01T23:24:58;5.25;;;4.75;;
19848;SDS011;10085;51.120;6.956;2023-04-01T23:35:49;3.92;;;3.63;;
19848;SDS011;10085;51.120;6.956;2023-04-01T23:40:54;4.85;;;4.35;;
19848;SDS011;10085;51.120;6.956;2023-04-01T23:45:57;3.75;;;3.45;;
19848;SDS011;10085;51.120;6.956;2023-04-01T23:51:02;4.15;;;3.33;;
19848;SDS011;10085;51.120;6.956;2023-04-01T23:56:06;4.25;;;3.85;;
